Time;durP1;ratioP1;P1;durP2;ratioP2;P2;SDS_P1;SDS_P2;PMS_P1;PMS_P2;Temp;Humidity;BMP_temperature;BMP_pressure;BME280_temperature;BME280_humidity;BME280_pressure;Samples;Min_cycle;Max_cycle;Signal;HPM_P1;HPM_P2
2021/04/18 00:01:37;;;;;;;9.85;2.38;;;5.40;99.90;;;;;;5055436;28;20486;-72
2021/04/18 00:04:05;;;;;;;8.68;3.25;;;5.30;99.90;;;;;;5054058;28;20075;-72
2021/04/18 00:06:32;;;;;;;7.75;2.88;;;5.30;99.90;;;;;;5049374;28;20037;-72
2021/04/18 00:08:58;;;;;;;6.35;2.35;;;5.20;99.90;;;;;;5053662;28;20056;-72
2021/04/18 00:11:23;;;;;;;12.95;3.70;;;5.20;99.90;;;;;;5058551;28;20087;-72
2021/04/18 00:13:49;;;;;;;12.07;3.08;;;5.10;99.90;;;;;;5056769;28;20092;-72
2021/04/18 00:16:15;;;;;;;11.45;3.35;;;5.10;99.90;;;;;;5056837;28;20090;-73
2021/04/18 00:18:40;;;;;;;10.93;3.00;;;5.10;99.90;;;;;;5053420;28;20035;-72
2021/04/18 00:21:06;;;;;;;12.15;2.63;;;5.10;99.90;;;;;;5056404;28;20041;-72
2021/04/18 00:23:32;;;;;;;11.57;2.95;;;5.10;99.90;;;;;;5053656;28;20041;-72
2021/04/18 00:25:57;;;;;;;14.38;3.90;;;5.00;99.90;;;;;;5057316;28;20090;-72
2021/04/18 00:28:23;;;;;;;12.05;3.50;;;5.00;99.90;;;;;;5052702;28;20040;-73
2021/04/18 00:30:50;;;;;;;7.38;3.00;;;5.00;99.90;;;;;;5057135;28;20033;-72
2021/04/18 00:33:16;;;;;;;9.43;2.90;;;5.00;99.90;;;;;;5053477;28;20115;-72
2021/04/18 00:35:41;;;;;;;7.97;2.95;;;5.00;99.90;;;;;;5057310;28;20025;-72
2021/04/18 00:38:07;;;;;;;11.85;3.40;;;5.00;99.90;;;;;;5054593;28;20041;-73
2021/04/18 00:40:33;;;;;;;14.55;3.63;;;4.90;99.90;;;;;;5052553;28;20148;-72
2021/04/18 00:42:58;;;;;;;10.43;3.55;;;4.90;99.90;;;;;;5056667;28;20127;-71
2021/04/18 00:45:24;;;;;;;12.05;3.05;;;4.90;99.90;;;;;;5053269;28;20116;-72
2021/04/18 00:47:52;;;;;;;15.27;4.00;;;4.90;99.90;;;;;;5053719;28;20446;-72
2021/04/18 00:50:25;;;;;;;10.32;3.67;;;4.80;99.90;;;;;;5052157;28;20037;-72
2021/04/18 00:52:51;;;;;;;9.52;3.15;;;4.80;99.90;;;;;;5057647;28;20025;-72
2021/04/18 00:55:19;;;;;;;10.13;3.50;;;4.80;99.90;;;;;;5053457;28;20037;-72
2021/04/18 00:57:45;;;;;;;13.30;3.50;;;4.70;99.90;;;;;;5055232;28;20090;-73
2021/04/18 01:00:11;;;;;;;16.88;3.80;;;4.70;99.90;;;;;;5055877;28;20028;-72
2021/04/18 01:02:37;;;;;;;13.00;4.20;;;4.70;99.90;;;;;;5052857;28;20043;-72
2021/04/18 01:05:04;;;;;;;11.10;3.83;;;4.60;99.90;;;;;;5055861;28;20033;-72
2021/04/18 01:07:30;;;;;;;13.27;3.17;;;4.60;99.90;;;;;;5053708;28;20422;-73
2021/04/18 01:09:57;;;;;;;11.55;3.95;;;4.60;99.90;;;;;;5048434;28;20025;-72
2021/04/18 01:12:23;;;;;;;8.80;4.05;;;4.50;99.90;;;;;;5052534;28;20174;-72
2021/04/18 01:14:49;;;;;;;11.23;4.70;;;4.50;99.90;;;;;;5055565;28;20247;-72
2021/04/18 01:17:14;;;;;;;6.97;3.17;;;4.40;99.90;;;;;;5054198;28;20048;-71
2021/04/18 01:19:40;;;;;;;13.35;4.03;;;4.40;99.90;;;;;;5054595;28;20494;-71
2021/04/18 01:22:06;;;;;;;12.93;3.28;;;4.30;99.90;;;;;;5056518;28;20514;-72
2021/04/18 01:24:31;;;;;;;13.68;4.45;;;4.30;99.90;;;;;;5056453;28;20037;-72
2021/04/18 01:26:57;;;;;;;21.38;4.38;;;4.30;99.90;;;;;;5054043;28;20497;-72
2021/04/18 01:29:23;;;;;;;9.93;3.92;;;4.30;99.90;;;;;;5051547;28;20060;-72
2021/04/18 01:31:48;;;;;;;9.85;3.63;;;4.30;99.90;;;;;;5053217;28;20041;-72
2021/04/18 01:34:15;;;;;;;7.20;3.08;;;4.30;99.90;;;;;;5055468;28;20116;-72
2021/04/18 01:36:47;;;;;;;12.23;4.20;;;4.30;99.90;;;;;;5053294;28;20036;-71
2021/04/18 01:39:14;;;;;;;13.95;4.43;;;4.30;99.90;;;;;;5054213;28;20033;-73
2021/04/18 01:41:41;;;;;;;14.82;4.72;;;4.30;99.90;;;;;;5053346;28;20056;-72
2021/04/18 01:44:13;;;;;;;14.38;4.30;;;4.30;99.90;;;;;;5054919;28;20600;-71
2021/04/18 01:46:40;;;;;;;10.32;4.25;;;4.40;99.90;;;;;;5055484;28;20045;-72
2021/04/18 01:49:07;;;;;;;9.20;4.22;;;4.40;99.90;;;;;;5055621;28;20465;-71
2021/04/18 01:51:32;;;;;;;21.33;5.50;;;4.30;99.90;;;;;;5058479;28;20113;-73
2021/04/18 01:53:58;;;;;;;15.63;4.70;;;4.30;99.90;;;;;;5058905;28;20144;-73
2021/04/18 01:56:24;;;;;;;35.78;5.53;;;4.30;99.90;;;;;;5056839;28;20051;-72
2021/04/18 01:58:49;;;;;;;12.15;3.65;;;4.30;99.90;;;;;;5056791;28;20367;-72
2021/04/18 02:01:15;;;;;;;10.30;4.07;;;4.30;99.90;;;;;;5057806;28;20139;-72
2021/04/18 02:03:40;;;;;;;19.73;6.28;;;4.30;99.90;;;;;;5058130;28;20033;-72
2021/04/18 02:06:06;;;;;;;22.02;5.93;;;4.30;99.90;;;;;;5057856;28;20035;-72
2021/04/18 02:08:32;;;;;;;13.32;4.25;;;4.30;99.90;;;;;;5057651;28;20048;-72
2021/04/18 02:10:58;;;;;;;12.80;5.03;;;4.30;99.90;;;;;;5058198;28;20136;-72
2021/04/18 02:13:23;;;;;;;14.80;3.97;;;4.30;99.90;;;;;;5056700;28;20025;-72
2021/04/18 02:15:49;;;;;;;15.40;4.18;;;4.20;99.90;;;;;;5062057;28;20068;-73
2021/04/18 02:18:14;;;;;;;14.50;5.05;;;4.20;99.90;;;;;;5057719;28;20024;-72
2021/04/18 02:20:40;;;;;;;12.50;5.47;;;4.20;99.90;;;;;;5057534;28;20048;-74
2021/04/18 02:23:06;;;;;;;9.52;3.83;;;4.10;99.90;;;;;;5056125;28;20111;-73
2021/04/18 02:25:31;;;;;;;10.63;4.30;;;4.10;99.90;;;;;;5057176;28;20371;-73
2021/04/18 02:27:57;;;;;;;9.13;4.05;;;4.10;99.90;;;;;;5054479;28;20049;-73
2021/04/18 02:30:23;;;;;;;17.10;4.95;;;4.00;99.90;;;;;;5061431;28;20047;-73
2021/04/18 02:32:48;;;;;;;12.70;5.95;;;4.00;99.90;;;;;;5060447;28;20070;-73
2021/04/18 02:35:16;;;;;;;11.10;4.30;;;4.00;99.90;;;;;;5056315;28;20458;-72
2021/04/18 02:37:42;;;;;;;11.38;4.13;;;4.00;99.90;;;;;;5059757;28;20037;-73
2021/04/18 02:40:08;;;;;;;17.70;5.53;;;3.90;99.90;;;;;;5055969;28;20033;-73
2021/04/18 02:42:34;;;;;;;14.77;4.43;;;4.00;99.90;;;;;;5057343;28;20469;-73
2021/04/18 02:44:59;;;;;;;9.68;4.05;;;4.00;99.90;;;;;;5055147;28;20057;-73
2021/04/18 02:47:25;;;;;;;12.73;4.93;;;4.00;99.90;;;;;;5059172;28;20453;-73
2021/04/18 02:49:50;;;;;;;23.15;4.90;;;4.10;99.90;;;;;;5058503;28;20033;-73
2021/04/18 02:52:16;;;;;;;16.40;4.68;;;4.00;99.90;;;;;;5055450;28;20039;-73
2021/04/18 02:54:42;;;;;;;13.88;5.40;;;4.00;99.90;;;;;;5059051;28;20035;-73
2021/04/18 02:57:08;;;;;;;16.60;4.32;;;4.00;99.90;;;;;;5055488;28;20051;-73
2021/04/18 02:59:33;;;;;;;17.75;5.53;;;4.00;99.90;;;;;;5056756;28;20032;-73
2021/04/18 03:01:59;;;;;;;25.20;5.80;;;4.00;99.90;;;;;;5055068;28;20845;-73
2021/04/18 03:04:24;;;;;;;14.27;4.93;;;3.90;99.90;;;;;;5055257;28;20036;-73
2021/04/18 03:06:50;;;;;;;10.18;4.88;;;3.90;99.90;;;;;;5056802;28;20067;-73
2021/04/18 03:09:16;;;;;;;11.82;4.50;;;3.90;99.90;;;;;;5057610;28;20089;-73
2021/04/18 03:11:42;;;;;;;8.52;4.30;;;3.90;99.90;;;;;;5056491;28;20044;-73
2021/04/18 03:14:07;;;;;;;14.25;4.80;;;3.80;99.90;;;;;;5056718;28;20033;-73
2021/04/18 03:16:33;;;;;;;10.57;4.35;;;3.90;99.90;;;;;;5057395;28;20056;-73
2021/04/18 03:18:58;;;;;;;12.13;4.35;;;3.80;99.90;;;;;;5057879;28;20032;-73
2021/04/18 03:21:24;;;;;;;15.27;4.50;;;3.80;99.90;;;;;;5052572;28;20124;-73
2021/04/18 03:23:50;;;;;;;9.40;4.80;;;3.70;99.90;;;;;;5054343;28;20033;-73
2021/04/18 03:26:16;;;;;;;12.93;4.82;;;3.70;99.90;;;;;;5057589;28;20048;-72
2021/04/18 03:28:41;;;;;;;13.25;4.97;;;3.70;99.90;;;;;;5057185;28;20120;-73
2021/04/18 03:31:07;;;;;;;18.33;4.65;;;3.60;99.90;;;;;;5057347;28;20075;-73
2021/04/18 03:33:33;;;;;;;17.60;5.22;;;3.60;99.90;;;;;;5057815;28;20145;-73
2021/04/18 03:39:20;;;;;;;18.15;5.32;;;3.60;99.90;;;;;;5049468;28;20051;-72
2021/04/18 03:41:45;;;;;;;12.15;4.53;;;3.50;99.90;;;;;;5057986;28;20033;-72
2021/04/18 03:44:11;;;;;;;12.00;4.57;;;3.60;99.90;;;;;;5054358;28;20128;-73
2021/04/18 03:46:37;;;;;;;14.90;5.25;;;3.60;99.90;;;;;;5056700;28;20045;-71
2021/04/18 03:49:03;;;;;;;20.23;5.35;;;3.60;99.90;;;;;;5055373;28;20044;-72
2021/04/18 03:51:29;;;;;;;24.50;6.18;;;3.60;99.90;;;;;;5055929;28;20083;-72
2021/04/18 03:53:54;;;;;;;16.17;6.18;;;3.60;99.90;;;;;;5055683;28;20564;-72
2021/04/18 03:56:20;;;;;;;13.57;5.60;;;3.60;99.90;;;;;;5054186;28;20052;-71
2021/04/18 03:58:45;;;;;;;12.60;4.40;;;3.70;99.90;;;;;;5058615;28;20522;-73
2021/04/18 04:01:12;;;;;;;16.27;6.18;;;3.70;99.90;;;;;;5059358;28;20130;-71
2021/04/18 04:03:37;;;;;;;14.18;4.75;;;3.60;99.90;;;;;;5058055;28;20068;-72
2021/04/18 04:06:04;;;;;;;13.15;4.65;;;3.60;99.90;;;;;;5056451;28;20192;-72
2021/04/18 04:08:30;;;;;;;9.85;4.10;;;3.60;99.90;;;;;;5052750;28;20784;-72
2021/04/18 04:10:55;;;;;;;12.73;4.70;;;3.60;99.90;;;;;;5055499;28;20061;-72
2021/04/18 04:13:21;;;;;;;12.95;4.43;;;3.60;99.90;;;;;;5056077;28;20127;-72
2021/04/18 04:15:46;;;;;;;15.82;5.38;;;3.60;99.90;;;;;;5054144;28;20029;-72
2021/04/18 04:18:12;;;;;;;14.52;5.22;;;3.60;99.90;;;;;;5055671;28;20033;-72
2021/04/18 04:20:37;;;;;;;11.20;4.25;;;3.60;99.90;;;;;;5055164;28;20035;-73
2021/04/18 04:23:03;;;;;;;9.82;5.22;;;3.60;99.90;;;;;;5054726;28;20082;-73
2021/04/18 04:25:29;;;;;;;15.48;4.97;;;3.60;99.90;;;;;;5054033;28;20036;-73
2021/04/18 04:27:55;;;;;;;12.93;4.80;;;3.60;99.90;;;;;;5053486;28;20112;-72
2021/04/18 04:30:22;;;;;;;14.95;4.57;;;3.60;99.90;;;;;;5056658;28;20093;-72
2021/04/18 04:32:47;;;;;;;18.30;6.38;;;3.70;99.90;;;;;;5053714;28;20044;-72
2021/04/18 04:35:13;;;;;;;16.95;5.53;;;3.60;99.90;;;;;;5055752;28;20394;-73
2021/04/18 04:37:39;;;;;;;21.60;5.75;;;3.60;99.90;;;;;;5052281;28;20067;-73
2021/04/18 04:40:05;;;;;;;12.93;5.45;;;3.70;99.90;;;;;;5055574;28;20136;-72
2021/04/18 04:42:31;;;;;;;11.13;4.35;;;3.70;99.90;;;;;;5055274;28;20044;-72
2021/04/18 04:44:56;;;;;;;9.38;4.30;;;3.70;99.90;;;;;;5053780;28;20029;-72
2021/04/18 04:47:22;;;;;;;16.08;4.93;;;3.70;99.90;;;;;;5052401;28;20190;-72
2021/04/18 04:49:48;;;;;;;12.90;4.53;;;3.70;99.90;;;;;;5056671;28;20055;-72
2021/04/18 04:52:13;;;;;;;11.35;4.13;;;3.70;99.90;;;;;;5053077;28;20055;-72
2021/04/18 04:54:39;;;;;;;13.82;5.65;;;3.70;99.90;;;;;;5056667;28;20036;-72
2021/04/18 04:57:06;;;;;;;15.07;5.05;;;3.70;99.90;;;;;;5054887;28;20097;-72
2021/04/18 04:59:31;;;;;;;9.43;3.95;;;3.70;99.90;;;;;;5054881;28;20090;-72
2021/04/18 05:01:57;;;;;;;11.68;5.05;;;3.70;99.90;;;;;;5052820;28;20056;-72
2021/04/18 05:04:23;;;;;;;11.85;5.38;;;3.70;99.90;;;;;;5056536;28;20514;-72
2021/04/18 05:06:48;;;;;;;14.68;4.85;;;3.70;99.90;;;;;;5051218;28;20114;-73
2021/04/18 05:09:14;;;;;;;15.38;4.68;;;3.70;99.90;;;;;;5051194;28;20044;-72
2021/04/18 05:11:39;;;;;;;11.00;4.40;;;3.70;99.90;;;;;;5053392;28;20498;-72
2021/04/18 05:14:05;;;;;;;12.10;4.68;;;3.70;99.90;;;;;;5053693;28;20444;-73
2021/04/18 05:16:30;;;;;;;11.38;4.07;;;3.80;99.90;;;;;;5050958;28;20166;-72
2021/04/18 05:18:56;;;;;;;9.05;3.85;;;3.90;99.90;;;;;;5054898;28;20478;-72
2021/04/18 05:21:23;;;;;;;10.57;3.88;;;4.00;99.90;;;;;;5052738;28;20501;-72
2021/04/18 05:23:49;;;;;;;11.05;3.80;;;4.00;99.90;;;;;;5054279;28;20047;-72
2021/04/18 05:26:15;;;;;;;10.98;3.75;;;4.10;99.90;;;;;;5051744;28;20041;-72
2021/04/18 05:28:41;;;;;;;12.90;2.50;;;4.10;99.90;;;;;;5053009;28;20485;-72
2021/04/18 05:31:06;;;;;;;3.60;2.00;;;4.20;99.90;;;;;;5053397;28;20029;-72
2021/04/18 05:33:32;;;;;;;4.07;2.20;;;4.30;99.90;;;;;;5054463;28;20098;-72
2021/04/18 05:35:58;;;;;;;7.15;2.15;;;4.30;99.90;;;;;;5055182;28;20136;-73
2021/04/18 05:38:24;;;;;;;6.03;2.78;;;4.40;99.90;;;;;;5054926;28;20032;-72
2021/04/18 05:40:50;;;;;;;13.73;4.00;;;4.50;99.90;;;;;;5053092;28;20441;-72
2021/04/18 05:43:16;;;;;;;7.22;3.05;;;4.50;99.90;;;;;;5055398;28;20078;-72
2021/04/18 05:45:41;;;;;;;11.65;3.15;;;4.70;99.90;;;;;;5049683;28;20029;-73
2021/04/18 05:48:07;;;;;;;19.63;5.43;;;4.70;99.90;;;;;;5052783;28;20052;-72
2021/04/18 05:50:33;;;;;;;12.85;3.15;;;4.80;99.90;;;;;;5055221;28;20033;-73
2021/04/18 05:52:59;;;;;;;10.90;3.60;;;4.90;99.90;;;;;;5052484;28;20032;-71
2021/04/18 05:55:25;;;;;;;17.27;4.57;;;5.00;99.90;;;;;;5055886;28;20687;-72
2021/04/18 05:57:50;;;;;;;12.75;3.38;;;5.10;99.90;;;;;;5052992;28;20102;-72
2021/04/18 06:00:16;;;;;;;14.15;4.10;;;5.20;99.90;;;;;;5051966;28;20906;-71
2021/04/18 06:02:42;;;;;;;15.20;4.70;;;5.30;99.90;;;;;;5057339;28;20040;-72
2021/04/18 06:05:08;;;;;;;21.58;6.13;;;5.40;99.90;;;;;;5051465;28;20043;-73
2021/04/18 06:07:34;;;;;;;18.88;5.25;;;5.50;99.90;;;;;;5055102;28;20040;-73
2021/04/18 06:10:00;;;;;;;15.10;5.30;;;5.50;99.90;;;;;;5051926;28;20033;-72
2021/04/18 06:12:25;;;;;;;13.95;4.90;;;5.60;99.90;;;;;;5054720;28;20039;-72
2021/04/18 06:14:52;;;;;;;14.70;4.55;;;5.80;99.90;;;;;;5053943;28;20552;-73
2021/04/18 06:17:18;;;;;;;20.20;5.20;;;5.90;99.90;;;;;;5054860;28;20395;-72
2021/04/18 06:19:43;;;;;;;17.42;5.07;;;6.00;99.90;;;;;;5054870;28;20028;-73
2021/04/18 06:22:09;;;;;;;12.45;4.97;;;6.10;99.90;;;;;;5049286;28;20045;-72
2021/04/18 06:24:35;;;;;;;17.50;4.82;;;6.20;99.90;;;;;;5055995;28;20132;-72
2021/04/18 06:27:01;;;;;;;18.75;5.10;;;6.40;99.90;;;;;;5049839;28;20143;-73
2021/04/18 06:29:26;;;;;;;13.02;5.45;;;6.50;99.90;;;;;;5053497;28;20033;-72
2021/04/18 06:31:52;;;;;;;17.77;4.65;;;6.60;99.90;;;;;;5053443;28;20060;-74
2021/04/18 06:34:22;;;;;;;13.70;4.47;;;6.60;99.90;;;;;;5050445;28;20037;-74
2021/04/18 06:36:48;;;;;;;14.97;4.40;;;6.80;99.90;;;;;;5058683;28;20537;-72
2021/04/18 06:39:13;;;;;;;13.23;5.03;;;6.90;99.90;;;;;;5053412;28;20043;-72
2021/04/18 06:41:40;;;;;;;14.27;4.38;;;7.00;99.90;;;;;;5046424;28;20387;-73
2021/04/18 06:44:06;;;;;;;10.18;4.18;;;7.20;99.90;;;;;;5052563;28;20025;-73
2021/04/18 06:46:32;;;;;;;7.63;3.45;;;7.40;99.90;;;;;;5050395;28;20041;-72
2021/04/18 06:48:59;;;;;;;16.45;4.25;;;7.50;99.90;;;;;;5045135;28;20047;-73
2021/04/18 06:51:25;;;;;;;10.52;4.63;;;7.50;99.90;;;;;;5043200;28;20544;-74
2021/04/18 06:53:50;;;;;;;8.48;3.92;;;7.60;99.90;;;;;;5052546;28;20033;-72
2021/04/18 06:56:16;;;;;;;12.73;3.88;;;7.70;99.90;;;;;;5051333;28;20033;-72
2021/04/18 06:58:41;;;;;;;11.95;4.65;;;7.80;99.90;;;;;;5051021;28;20032;-73
2021/04/18 07:01:07;;;;;;;13.93;4.38;;;7.80;99.90;;;;;;5049032;28;20033;-72
2021/04/18 07:03:33;;;;;;;8.02;3.53;;;7.90;99.90;;;;;;5052499;28;20034;-72
2021/04/18 07:05:59;;;;;;;13.50;4.30;;;7.90;99.90;;;;;;5049967;28;20052;-72
2021/04/18 07:08:27;;;;;;;12.65;4.10;;;8.00;99.90;;;;;;5050673;28;20041;-72
2021/04/18 07:11:10;;;;;;;11.43;4.47;;;8.20;99.90;;;;;;5054760;28;20490;-72
2021/04/18 07:13:36;;;;;;;16.40;4.82;;;8.30;99.90;;;;;;5049296;28;20110;-72
2021/04/18 07:16:02;;;;;;;8.73;4.03;;;8.40;99.90;;;;;;5051286;28;20033;-72
2021/04/18 07:18:40;;;;;;;11.10;4.65;;;8.40;99.90;;;;;;5053175;28;20047;-72
2021/04/18 07:21:07;;;;;;;18.25;4.70;;;8.50;99.90;;;;;;5051128;28;20037;-72
2021/04/18 07:23:34;;;;;;;14.20;4.63;;;8.40;99.90;;;;;;5054151;28;20520;-72
2021/04/18 07:26:25;;;;;;;20.40;5.38;;;8.50;99.90;;;;;;5056924;28;20025;-72
2021/04/18 07:28:52;;;;;;;16.75;5.13;;;8.70;99.90;;;;;;5052077;28;20044;-72
2021/04/18 07:31:34;;;;;;;11.57;4.57;;;8.70;99.90;;;;;;5048059;28;20053;-71
2021/04/18 07:34:08;;;;;;;18.27;4.28;;;8.70;99.90;;;;;;5052107;28;20075;-71
2021/04/18 07:36:35;;;;;;;9.93;3.42;;;8.80;99.90;;;;;;5044228;28;20115;-72
2021/04/18 07:39:07;;;;;;;14.25;4.97;;;9.00;99.90;;;;;;5045334;28;20029;-72
2021/04/18 07:41:37;;;;;;;11.20;3.58;;;9.40;99.90;;;;;;5049657;28;20491;-72
2021/04/18 07:44:04;;;;;;;10.98;3.97;;;9.60;99.90;;;;;;5046057;28;20025;-71
2021/04/18 07:46:30;;;;;;;10.82;3.63;;;9.80;99.90;;;;;;5050095;28;20040;-72
2021/04/18 07:48:56;;;;;;;7.97;3.45;;;9.90;99.90;;;;;;5047030;28;20475;-72
2021/04/18 07:51:24;;;;;;;10.75;3.75;;;10.10;99.90;;;;;;5048427;28;20041;-71
2021/04/18 07:53:50;;;;;;;7.47;3.15;;;10.20;99.90;;;;;;5048018;28;20067;-72
2021/04/18 07:56:16;;;;;;;11.23;4.10;;;10.50;99.90;;;;;;5052637;28;20410;-70
2021/04/18 07:58:43;;;;;;;8.80;3.63;;;10.50;99.90;;;;;;5050111;28;20032;-69
2021/04/18 08:01:09;;;;;;;11.35;3.10;;;10.60;99.90;;;;;;5053586;28;20033;-71
2021/04/18 08:03:36;;;;;;;13.48;4.00;;;10.70;99.90;;;;;;5057034;28;20029;-70
2021/04/18 08:06:04;;;;;;;8.88;3.40;;;11.00;99.90;;;;;;5047626;28;20141;-70
2021/04/18 08:08:45;;;;;;;8.23;3.67;;;11.20;99.90;;;;;;5054547;28;20029;-70
2021/04/18 08:11:12;;;;;;;6.70;3.40;;;11.20;99.90;;;;;;5051773;28;20105;-70
2021/04/18 08:13:40;;;;;;;10.80;3.58;;;11.30;99.90;;;;;;5057212;28;20036;-70
2021/04/18 08:16:06;;;;;;;12.80;3.78;;;11.40;99.90;;;;;;5050425;28;20060;-70
2021/04/18 08:18:40;;;;;;;8.15;2.60;;;11.50;99.90;;;;;;5051388;28;20059;-71
2021/04/18 08:21:39;;;;;;;7.60;2.67;;;11.60;99.90;;;;;;5053424;28;20055;-70
2021/04/18 08:24:26;;;;;;;13.88;3.17;;;11.70;99.90;;;;;;5047471;28;20041;-71
2021/04/18 08:27:11;;;;;;;11.82;3.13;;;11.90;99.90;;;;;;5033622;28;20037;-71
2021/04/18 08:30:03;;;;;;;8.20;2.85;;;11.80;99.90;;;;;;5049991;28;20045;-70
2021/04/18 08:32:43;;;;;;;8.05;3.20;;;11.70;99.90;;;;;;5054533;28;20074;-70
2021/04/18 08:35:17;;;;;;;10.43;3.08;;;11.90;99.90;;;;;;5052207;28;20064;-70
2021/04/18 08:37:42;;;;;;;11.93;3.78;;;12.00;99.90;;;;;;5053947;28;20603;-70
2021/04/18 08:40:09;;;;;;;6.88;2.85;;;11.80;99.90;;;;;;5054816;28;20033;-70
2021/04/18 08:42:35;;;;;;;7.40;2.78;;;11.60;99.90;;;;;;5052594;28;20033;-70
2021/04/18 08:45:01;;;;;;;7.22;3.08;;;11.60;99.90;;;;;;5056017;28;20550;-70
2021/04/18 08:47:29;;;;;;;7.95;2.85;;;11.70;99.90;;;;;;5049277;28;20120;-70
2021/04/18 08:50:03;;;;;;;6.43;2.50;;;12.00;99.90;;;;;;5053727;28;20040;-70
2021/04/18 08:52:34;;;;;;;7.05;2.65;;;12.20;99.90;;;;;;5049384;28;20553;-70
2021/04/18 08:55:07;;;;;;;;;;;12.00;99.90;;;;;;5047786;28;20116;-71
2021/04/18 08:57:33;;;;;;;10.80;3.40;;;11.80;99.90;;;;;;5048400;28;19959;-71
2021/04/18 09:00:01;;;;;;;10.50;3.58;;;11.80;99.90;;;;;;5048812;28;20056;-70
2021/04/18 09:02:29;;;;;;;5.70;2.60;;;11.90;99.90;;;;;;5035188;28;20124;-70
2021/04/18 09:04:58;;;;;;;9.43;3.13;;;11.80;99.90;;;;;;5052080;28;20446;-70
2021/04/18 09:07:29;;;;;;;8.20;2.33;;;11.70;99.90;;;;;;5056261;28;20139;-71
2021/04/18 09:10:04;;;;;;;9.38;2.47;;;11.80;99.90;;;;;;5050251;28;20041;-70
2021/04/18 09:12:30;;;;;;;8.63;2.53;;;11.80;99.90;;;;;;5049042;28;20037;-70
2021/04/18 09:14:56;;;;;;;10.35;4.10;;;11.80;99.90;;;;;;5055839;28;20051;-71
2021/04/18 09:17:23;;;;;;;6.70;2.38;;;11.80;99.90;;;;;;5053233;28;20059;-70
2021/04/18 09:19:55;;;;;;;7.68;2.55;;;12.00;99.90;;;;;;5052334;28;20037;-69
2021/04/18 09:22:30;;;;;;;7.45;3.13;;;12.10;99.90;;;;;;5053114;28;20086;-70
2021/04/18 09:24:58;;;;;;;8.68;3.47;;;12.20;99.90;;;;;;5053019;28;20462;-70
2021/04/18 09:27:29;;;;;;;6.82;1.92;;;12.40;99.90;;;;;;5053003;28;20037;-70
2021/04/18 09:29:54;;;;;;;;;;;12.50;99.90;;;;;;5055193;28;20037;-70
2021/04/18 09:32:31;;;;;;;6.28;2.10;;;12.40;99.90;;;;;;5049442;28;19917;-70
2021/04/18 09:34:57;;;;;;;7.68;2.63;;;12.40;99.90;;;;;;5051896;28;20036;-70
2021/04/18 09:37:29;;;;;;;7.20;2.72;;;12.50;99.90;;;;;;5045687;28;20041;-71
2021/04/18 09:40:02;;;;;;;5.75;2.55;;;12.60;99.90;;;;;;5055089;28;20376;-71
2021/04/18 09:42:34;;;;;;;8.60;2.83;;;12.70;99.90;;;;;;5041337;28;20033;-70
2021/04/18 09:45:12;;;;;;;6.18;2.40;;;12.70;99.90;;;;;;5047095;28;20036;-69
2021/04/18 09:47:38;;;;;;;8.82;2.58;;;12.80;99.90;;;;;;5050467;28;20073;-70
2021/04/18 09:50:14;;;;;;;9.25;2.78;;;12.90;99.90;;;;;;5052755;28;20071;-70
2021/04/18 09:52:40;;;;;;;7.00;2.95;;;13.10;99.90;;;;;;5052572;28;20418;-72
2021/04/18 09:55:15;;;;;;;6.13;2.50;;;13.20;99.90;;;;;;5052054;28;20033;-70
2021/04/18 09:57:55;;;;;;;2.63;1.75;;;13.30;99.90;;;;;;5052222;28;20491;-71
2021/04/18 10:00:22;;;;;;;9.95;3.15;;;13.40;99.90;;;;;;5052514;28;20120;-70
2021/04/18 10:03:07;;;;;;;6.07;1.95;;;13.50;99.90;;;;;;5048858;28;20049;-70
2021/04/18 10:05:35;;;;;;;9.30;2.47;;;13.40;99.90;;;;;;5048784;28;20056;-70
2021/04/18 10:08:22;;;;;;;7.85;2.40;;;13.20;99.90;;;;;;5055428;28;20040;-70
2021/04/18 10:10:56;;;;;;;7.05;1.70;;;13.20;99.90;;;;;;5058280;28;20048;-71
2021/04/18 10:13:43;;;;;;;12.18;2.72;;;13.20;99.90;;;;;;5056455;28;20035;-71
2021/04/18 10:16:11;;;;;;;9.18;2.60;;;13.50;99.90;;;;;;5055066;28;20048;-70
2021/04/18 10:18:39;;;;;;;10.75;2.30;;;13.50;99.90;;;;;;5057993;28;20040;-70
2021/04/18 10:21:21;;;;;;;4.60;1.88;;;13.70;99.90;;;;;;5054210;28;20036;-72
2021/04/18 10:23:48;;;;;;;6.93;2.22;;;13.80;99.90;;;;;;5055052;28;20493;-71
2021/04/18 10:26:18;;;;;;;10.45;2.38;;;14.00;99.90;;;;;;5056756;28;20086;-70
2021/04/18 10:28:44;;;;;;;7.82;2.60;;;14.10;99.60;;;;;;5055347;28;20037;-73
2021/04/18 10:31:12;;;;;;;5.80;2.17;;;14.20;98.70;;;;;;5055850;28;20403;-71
2021/04/18 10:33:37;;;;;;;6.30;1.92;;;14.30;97.80;;;;;;5055879;28;20551;-70
2021/04/18 10:36:03;;;;;;;6.47;2.00;;;14.30;98.00;;;;;;5052588;28;20033;-71
2021/04/18 10:38:29;;;;;;;7.95;2.45;;;14.40;96.80;;;;;;5056677;28;20072;-71
2021/04/18 10:40:54;;;;;;;5.88;2.08;;;14.40;96.30;;;;;;5054778;28;20033;-70
2021/04/18 10:43:20;;;;;;;5.72;1.98;;;14.30;96.90;;;;;;5057569;28;20101;-71
2021/04/18 10:45:46;;;;;;;5.40;2.50;;;14.30;95.80;;;;;;5055889;28;20135;-71
2021/04/18 10:48:11;;;;;;;10.93;2.05;;;14.20;95.80;;;;;;5055342;28;20435;-71
2021/04/18 10:50:37;;;;;;;4.95;1.65;;;14.10;94.30;;;;;;5050441;28;20061;-70
2021/04/18 10:53:03;;;;;;;9.80;2.25;;;14.10;94.90;;;;;;5054294;28;20033;-70
2021/04/18 10:55:29;;;;;;;6.70;1.80;;;14.10;96.60;;;;;;5054814;28;20052;-71
2021/04/18 10:57:55;;;;;;;7.03;2.08;;;14.20;95.00;;;;;;5056088;28;20063;-71
2021/04/18 11:00:21;;;;;;;11.52;2.83;;;14.30;91.80;;;;;;5054563;28;20530;-71
2021/04/18 11:02:47;;;;;;;8.38;1.92;;;14.40;91.30;;;;;;5056161;28;20067;-71
2021/04/18 11:05:13;;;;;;;3.88;1.80;;;14.40;90.20;;;;;;5052702;28;20075;-70
2021/04/18 11:07:39;;;;;;;4.45;1.90;;;14.30;90.60;;;;;;5052370;28;20172;-70
2021/04/18 11:10:07;;;;;;;6.50;2.50;;;14.30;91.00;;;;;;5050936;28;20071;-69
2021/04/18 11:12:33;;;;;;;5.30;2.05;;;14.30;89.50;;;;;;5048830;28;20095;-69
2021/04/18 11:14:58;;;;;;;5.88;2.38;;;14.30;90.40;;;;;;5050944;28;20168;-70
2021/04/18 11:17:24;;;;;;;7.53;2.35;;;14.40;90.20;;;;;;5047539;28;20037;-70
2021/04/18 11:19:52;;;;;;;6.00;1.77;;;14.40;89.50;;;;;;5049468;28;20044;-70
2021/04/18 11:22:19;;;;;;;4.68;2.13;;;14.30;86.50;;;;;;5047226;28;20119;-71
2021/04/18 11:24:44;;;;;;;5.60;2.03;;;14.20;88.00;;;;;;5048172;28;20032;-70
2021/04/18 11:27:10;;;;;;;7.10;2.42;;;14.20;92.30;;;;;;5048116;28;20445;-70
2021/04/18 11:29:42;;;;;;;2.97;1.52;;;14.30;91.10;;;;;;5053696;28;20029;-71
2021/04/18 11:32:09;;;;;;;5.35;2.13;;;14.30;90.00;;;;;;5056905;28;20036;-71
2021/04/18 11:34:35;;;;;;;5.28;1.65;;;14.30;85.90;;;;;;5053629;28;20029;-70
2021/04/18 11:37:02;;;;;;;5.57;1.85;;;14.10;87.90;;;;;;5055388;28;20082;-72
2021/04/18 11:39:28;;;;;;;8.32;2.05;;;14.20;90.90;;;;;;5053110;28;20079;-71
2021/04/18 11:41:54;;;;;;;8.48;3.08;;;14.30;85.90;;;;;;5057152;28;20028;-70
2021/04/18 11:44:20;;;;;;;6.00;2.08;;;14.30;83.70;;;;;;5051960;28;20037;-70
2021/04/18 11:46:46;;;;;;;6.40;2.13;;;14.30;80.90;;;;;;5056375;28;20782;-71
2021/04/18 11:49:12;;;;;;;8.20;2.15;;;14.30;79.30;;;;;;5055121;28;20107;-71
2021/04/18 11:51:38;;;;;;;7.78;2.53;;;14.30;81.60;;;;;;5055744;28;20562;-70
2021/04/18 11:54:05;;;;;;;7.63;1.90;;;14.30;82.10;;;;;;5057119;28;20036;-71
2021/04/18 11:56:32;;;;;;;6.93;2.45;;;14.20;85.10;;;;;;5056666;28;20036;-71
2021/04/18 11:58:58;;;;;;;6.28;2.17;;;14.30;84.80;;;;;;5046809;28;20036;-70
2021/04/18 12:01:24;;;;;;;4.72;1.80;;;14.30;86.10;;;;;;5052773;28;20395;-70
2021/04/18 12:03:50;;;;;;;7.07;2.10;;;14.40;88.80;;;;;;5057036;28;20021;-70
2021/04/18 12:06:15;;;;;;;10.52;2.17;;;14.40;86.40;;;;;;5057030;28;20051;-70
2021/04/18 12:08:41;;;;;;;4.72;1.90;;;14.50;83.70;;;;;;5053621;28;20045;-71
2021/04/18 12:11:07;;;;;;;5.75;2.05;;;14.40;83.10;;;;;;5054897;28;20540;-70
2021/04/18 12:13:32;;;;;;;4.88;1.83;;;14.50;85.10;;;;;;5039032;28;20030;-72
2021/04/18 12:15:58;;;;;;;10.52;2.05;;;14.50;83.00;;;;;;5053108;28;20402;-71
2021/04/18 12:18:23;;;;;;;9.73;2.03;;;14.50;82.10;;;;;;5039841;28;20040;-70
2021/04/18 12:20:49;;;;;;;4.47;1.90;;;14.70;79.40;;;;;;5052908;28;20124;-70
2021/04/18 12:23:16;;;;;;;6.00;1.70;;;14.70;79.00;;;;;;5056595;28;20041;-70
2021/04/18 12:25:41;;;;;;;4.57;1.30;;;14.70;80.00;;;;;;5051305;28;21450;-70
2021/04/18 12:28:08;;;;;;;4.68;1.60;;;14.80;76.80;;;;;;5044865;28;20073;-70
2021/04/18 12:30:34;;;;;;;6.60;1.85;;;14.80;70.10;;;;;;5054884;28;20032;-70
2021/04/18 12:33:00;;;;;;;5.95;2.40;;;14.80;70.50;;;;;;5052241;28;20032;-70
2021/04/18 12:35:26;;;;;;;5.10;1.98;;;14.90;71.20;;;;;;5057489;28;20403;-71
2021/04/18 12:37:52;;;;;;;8.57;1.98;;;14.80;67.50;;;;;;5052643;28;20105;-70
2021/04/18 12:40:18;;;;;;;4.82;1.65;;;14.80;68.60;;;;;;5056040;28;20064;-70
2021/04/18 12:42:43;;;;;;;6.35;2.05;;;14.80;69.40;;;;;;5055531;28;20061;-70
2021/04/18 12:45:10;;;;;;;5.28;2.00;;;14.80;70.70;;;;;;5056841;28;20101;-69
2021/04/18 12:47:35;;;;;;;4.88;2.35;;;14.90;72.30;;;;;;5056221;28;20033;-71
2021/04/18 12:50:02;;;;;;;4.53;2.22;;;14.90;73.00;;;;;;5046477;28;20682;-70
2021/04/18 12:52:27;;;;;;;6.10;2.50;;;14.90;73.50;;;;;;5056989;28;20043;-71